sensor_id;sensor_type;location;lat;lon;timestamp;P1;durP1;ratioP1;P2;durP2;ratioP2
7661;SDS011;30314;48.184;11.510;2022-09-09T00:02:18;3.80;;;0.97;;
7661;SDS011;30314;48.184;11.510;2022-09-09T00:04:49;1.73;;;1.00;;
7661;SDS011;30314;48.184;11.510;2022-09-09T00:07:29;2.17;;;1.27;;
7661;SDS011;30314;48.184;11.510;2022-09-09T00:10:09;2.30;;;0.90;;
7661;SDS011;30314;48.184;11.510;2022-09-09T00:12:50;2.10;;;0.87;;
7661;SDS011;30314;48.184;11.510;2022-09-09T00:15:23;3.23;;;1.43;;
7661;SDS011;30314;48.184;11.510;2022-09-09T00:17:56;2.23;;;0.90;;
7661;SDS011;30314;48.184;11.510;2022-09-09T00:20:32;3.67;;;0.90;;
7661;SDS011;30314;48.184;11.510;2022-09-09T00:23:04;1.40;;;0.83;;
7661;SDS011;30314;48.184;11.510;2022-09-09T00:25:40;3.10;;;1.17;;
7661;SDS011;30314;48.184;11.510;2022-09-09T00:28:19;2.10;;;1.03;;
7661;SDS011;30314;48.184;11.510;2022-09-09T00:30:49;1.47;;;0.90;;
7661;SDS011;30314;48.184;11.510;2022-09-09T00:33:18;3.27;;;1.03;;
7661;SDS011;30314;48.184;11.510;2022-09-09T00:35:49;1.60;;;0.70;;
7661;SDS011;30314;48.184;11.510;2022-09-09T00:38:19;1.63;;;0.70;;
7661;SDS011;30314;48.184;11.510;2022-09-09T00:40:52;1.67;;;0.80;;
7661;SDS011;30314;48.184;11.510;2022-09-09T00:43:26;2.93;;;0.97;;
7661;SDS011;30314;48.184;11.510;2022-09-09T00:46:00;2.07;;;1.10;;
7661;SDS011;30314;48.184;11.510;2022-09-09T00:48:59;5.60;;;0.90;;
7661;SDS011;30314;48.184;11.510;2022-09-09T00:51:39;2.50;;;0.80;;
7661;SDS011;30314;48.184;11.510;2022-09-09T00:54:21;6.93;;;1.57;;
7661;SDS011;30314;48.184;11.510;2022-09-09T00:57:04;5.00;;;1.20;;
7661;SDS011;30314;48.184;11.510;2022-09-09T00:59:45;6.53;;;0.90;;
7661;SDS011;30314;48.184;11.510;2022-09-09T01:02:18;2.50;;;0.90;;
7661;SDS011;30314;48.184;11.510;2022-09-09T01:04:54;3.77;;;1.07;;
7661;SDS011;30314;48.184;11.510;2022-09-09T01:07:26;5.93;;;1.40;;
7661;SDS011;30314;48.184;11.510;2022-09-09T01:09:55;1.33;;;1.00;;
7661;SDS011;30314;48.184;11.510;2022-09-09T01:12:28;2.97;;;1.10;;
7661;SDS011;30314;48.184;11.510;2022-09-09T01:15:07;1.40;;;0.97;;
7661;SDS011;30314;48.184;11.510;2022-09-09T01:17:50;1.20;;;1.03;;
7661;SDS011;30314;48.184;11.510;2022-09-09T01:20:22;3.57;;;1.20;;
7661;SDS011;30314;48.184;11.510;2022-09-09T01:23:00;3.17;;;1.00;;
7661;SDS011;30314;48.184;11.510;2022-09-09T01:28:51;2.33;;;1.33;;
7661;SDS011;30314;48.184;11.510;2022-09-09T01:31:28;1.73;;;0.87;;
7661;SDS011;30314;48.184;11.510;2022-09-09T01:33:58;1.53;;;0.83;;
7661;SDS011;30314;48.184;11.510;2022-09-09T01:36:29;2.60;;;1.00;;
7661;SDS011;30314;48.184;11.510;2022-09-09T01:39:01;2.03;;;1.40;;
7661;SDS011;30314;48.184;11.510;2022-09-09T01:41:31;2.10;;;0.93;;
7661;SDS011;30314;48.184;11.510;2022-09-09T01:44:05;1.40;;;0.90;;
7661;SDS011;30314;48.184;11.510;2022-09-09T01:46:37;2.87;;;1.27;;
7661;SDS011;30314;48.184;11.510;2022-09-09T01:49:10;1.60;;;1.10;;
7661;SDS011;30314;48.184;11.510;2022-09-09T01:51:39;1.30;;;0.90;;
7661;SDS011;30314;48.184;11.510;2022-09-09T01:54:12;2.03;;;1.00;;
7661;SDS011;30314;48.184;11.510;2022-09-09T01:56:45;4.30;;;1.50;;
7661;SDS011;30314;48.184;11.510;2022-09-09T01:59:28;4.87;;;1.63;;
7661;SDS011;30314;48.184;11.510;2022-09-09T02:02:09;1.70;;;1.10;;
7661;SDS011;30314;48.184;11.510;2022-09-09T02:04:45;4.27;;;1.30;;
7661;SDS011;30314;48.184;11.510;2022-09-09T02:07:33;2.73;;;1.20;;
7661;SDS011;30314;48.184;11.510;2022-09-09T02:10:19;4.20;;;1.30;;
7661;SDS011;30314;48.184;11.510;2022-09-09T02:13:02;3.77;;;1.20;;
7661;SDS011;30314;48.184;11.510;2022-09-09T02:15:37;3.60;;;1.20;;
7661;SDS011;30314;48.184;11.510;2022-09-09T02:18:13;2.80;;;1.10;;
7661;SDS011;30314;48.184;11.510;2022-09-09T02:20:48;2.70;;;1.17;;
7661;SDS011;30314;48.184;11.510;2022-09-09T02:23:18;3.13;;;1.20;;
7661;SDS011;30314;48.184;11.510;2022-09-09T02:25:50;5.10;;;1.20;;
7661;SDS011;30314;48.184;11.510;2022-09-09T02:28:24;4.20;;;1.93;;
7661;SDS011;30314;48.184;11.510;2022-09-09T02:30:56;2.63;;;1.10;;
7661;SDS011;30314;48.184;11.510;2022-09-09T04:47:44;1.60;;;1.10;;
7661;SDS011;30314;48.184;11.510;2022-09-09T04:50:12;1.80;;;1.10;;
7661;SDS011;30314;48.184;11.510;2022-09-09T04:52:40;3.17;;;1.00;;
7661;SDS011;30314;48.184;11.510;2022-09-09T04:55:08;7.87;;;1.60;;
7661;SDS011;30314;48.184;11.510;2022-09-09T04:57:36;2.70;;;1.00;;
7661;SDS011;30314;48.184;11.510;2022-09-09T05:00:04;3.13;;;1.10;;
7661;SDS011;30314;48.184;11.510;2022-09-09T05:02:37;8.00;;;1.20;;
7661;SDS011;30314;48.184;11.510;2022-09-09T05:05:07;1.67;;;1.00;;
7661;SDS011;30314;48.184;11.510;2022-09-09T05:07:37;3.33;;;1.13;;
7661;SDS011;30314;48.184;11.510;2022-09-09T05:10:06;2.07;;;1.30;;
7661;SDS011;30314;48.184;11.510;2022-09-09T05:12:34;2.67;;;0.90;;
7661;SDS011;30314;48.184;11.510;2022-09-09T05:15:05;3.57;;;1.60;;
7661;SDS011;30314;48.184;11.510;2022-09-09T05:17:34;2.30;;;1.37;;
7661;SDS011;30314;48.184;11.510;2022-09-09T05:20:03;2.13;;;1.10;;
7661;SDS011;30314;48.184;11.510;2022-09-09T05:22:37;3.53;;;1.47;;
7661;SDS011;30314;48.184;11.510;2022-09-09T05:25:05;4.37;;;1.70;;
7661;SDS011;30314;48.184;11.510;2022-09-09T05:27:34;4.50;;;1.87;;
7661;SDS011;30314;48.184;11.510;2022-09-09T05:30:03;1.43;;;1.03;;
7661;SDS011;30314;48.184;11.510;2022-09-09T05:32:32;3.33;;;1.27;;
7661;SDS011;30314;48.184;11.510;2022-09-09T05:35:00;3.30;;;1.20;;
7661;SDS011;30314;48.184;11.510;2022-09-09T05:37:28;1.93;;;1.20;;
7661;SDS011;30314;48.184;11.510;2022-09-09T05:39:59;3.30;;;1.50;;
7661;SDS011;30314;48.184;11.510;2022-09-09T05:42:29;4.90;;;2.03;;
7661;SDS011;30314;48.184;11.510;2022-09-09T05:44:58;2.13;;;1.13;;
7661;SDS011;30314;48.184;11.510;2022-09-09T05:47:26;4.03;;;1.20;;
7661;SDS011;30314;48.184;11.510;2022-09-09T05:49:55;3.37;;;1.27;;
7661;SDS011;30314;48.184;11.510;2022-09-09T05:52:23;2.17;;;1.10;;
7661;SDS011;30314;48.184;11.510;2022-09-09T05:54:53;2.20;;;1.10;;
7661;SDS011;30314;48.184;11.510;2022-09-09T05:57:24;2.40;;;1.10;;
7661;SDS011;30314;48.184;11.510;2022-09-09T05:59:52;1.60;;;1.30;;
7661;SDS011;30314;48.184;11.510;2022-09-09T06:02:20;3.10;;;1.40;;
7661;SDS011;30314;48.184;11.510;2022-09-09T06:04:49;2.90;;;1.30;;
7661;SDS011;30314;48.184;11.510;2022-09-09T06:07:16;2.50;;;1.47;;
7661;SDS011;30314;48.184;11.510;2022-09-09T06:09:44;1.87;;;1.20;;
7661;SDS011;30314;48.184;11.510;2022-09-09T06:12:12;3.30;;;1.40;;
7661;SDS011;30314;48.184;11.510;2022-09-09T06:14:41;3.13;;;1.07;;
7661;SDS011;30314;48.184;11.510;2022-09-09T06:17:13;2.93;;;1.27;;
7661;SDS011;30314;48.184;11.510;2022-09-09T06:19:41;4.70;;;1.10;;
7661;SDS011;30314;48.184;11.510;2022-09-09T06:22:09;3.63;;;1.97;;
7661;SDS011;30314;48.184;11.510;2022-09-09T06:24:40;1.80;;;1.30;;
7661;SDS011;30314;48.184;11.510;2022-09-09T06:27:08;3.30;;;1.23;;
7661;SDS011;30314;48.184;11.510;2022-09-09T06:29:37;2.30;;;1.00;;
7661;SDS011;30314;48.184;11.510;2022-09-09T06:32:06;4.83;;;1.20;;
7661;SDS011;30314;48.184;11.510;2022-09-09T06:34:34;2.33;;;0.93;;
7661;SDS011;30314;48.184;11.510;2022-09-09T06:37:02;4.03;;;1.23;;
7661;SDS011;30314;48.184;11.510;2022-09-09T06:39:37;1.83;;;1.10;;
7661;SDS011;30314;48.184;11.510;2022-09-09T06:42:05;3.30;;;0.80;;
7661;SDS011;30314;48.184;11.510;2022-09-09T06:44:49;4.67;;;0.93;;
7661;SDS011;30314;48.184;11.510;2022-09-09T06:47:26;5.63;;;0.90;;
7661;SDS011;30314;48.184;11.510;2022-09-09T06:49:57;3.07;;;0.93;;
7661;SDS011;30314;48.184;11.510;2022-09-09T06:52:25;3.73;;;1.07;;
7661;SDS011;30314;48.184;11.510;2022-09-09T06:54:54;2.30;;;0.90;;
7661;SDS011;30314;48.184;11.510;2022-09-09T06:57:24;2.90;;;1.10;;
7661;SDS011;30314;48.184;11.510;2022-09-09T07:00:05;2.57;;;1.27;;
7661;SDS011;30314;48.184;11.510;2022-09-09T07:02:35;3.03;;;0.90;;
7661;SDS011;30314;48.184;11.510;2022-09-09T07:05:06;3.30;;;0.83;;
7661;SDS011;30314;48.184;11.510;2022-09-09T07:07:36;4.27;;;0.70;;
7661;SDS011;30314;48.184;11.510;2022-09-09T07:10:05;3.57;;;0.63;;
7661;SDS011;30314;48.184;11.510;2022-09-09T07:12:35;1.40;;;0.87;;
7661;SDS011;30314;48.184;11.510;2022-09-09T07:15:05;4.60;;;1.07;;
7661;SDS011;30314;48.184;11.510;2022-09-09T07:17:33;5.57;;;1.10;;
7661;SDS011;30314;48.184;11.510;2022-09-09T07:20:03;3.33;;;1.37;;
7661;SDS011;30314;48.184;11.510;2022-09-09T07:22:31;3.77;;;1.70;;
7661;SDS011;30314;48.184;11.510;2022-09-09T07:25:00;2.23;;;1.10;;
7661;SDS011;30314;48.184;11.510;2022-09-09T07:27:28;3.00;;;1.27;;
7661;SDS011;30314;48.184;11.510;2022-09-09T07:29:57;1.90;;;1.10;;
7661;SDS011;30314;48.184;11.510;2022-09-09T07:32:25;2.30;;;1.07;;
7661;SDS011;30314;48.184;11.510;2022-09-09T07:34:53;2.83;;;1.20;;
7661;SDS011;30314;48.184;11.510;2022-09-09T07:37:22;4.23;;;1.10;;
7661;SDS011;30314;48.184;11.510;2022-09-09T07:39:51;1.60;;;1.03;;
7661;SDS011;30314;48.184;11.510;2022-09-09T07:42:19;2.43;;;1.40;;
7661;SDS011;30314;48.184;11.510;2022-09-09T07:44:48;5.90;;;1.50;;
7661;SDS011;30314;48.184;11.510;2022-09-09T07:47:16;3.07;;;1.50;;
7661;SDS011;30314;48.184;11.510;2022-09-09T07:49:45;2.77;;;1.00;;
7661;SDS011;30314;48.184;11.510;2022-09-09T07:52:21;2.23;;;1.10;;
7661;SDS011;30314;48.184;11.510;2022-09-09T07:54:54;3.93;;;1.00;;
7661;SDS011;30314;48.184;11.510;2022-09-09T07:57:23;4.40;;;1.57;;
7661;SDS011;30314;48.184;11.510;2022-09-09T07:59:52;4.30;;;1.13;;
7661;SDS011;30314;48.184;11.510;2022-09-09T08:02:20;2.10;;;0.80;;
7661;SDS011;30314;48.184;11.510;2022-09-09T08:04:48;1.60;;;0.80;;
7661;SDS011;30314;48.184;11.510;2022-09-09T08:07:17;5.60;;;1.20;;
7661;SDS011;30314;48.184;11.510;2022-09-09T08:09:53;1.90;;;0.83;;
7661;SDS011;30314;48.184;11.510;2022-09-09T08:12:26;5.73;;;1.73;;
7661;SDS011;30314;48.184;11.510;2022-09-09T08:14:55;3.83;;;1.30;;
7661;SDS011;30314;48.184;11.510;2022-09-09T08:17:27;2.40;;;1.50;;
7661;SDS011;30314;48.184;11.510;2022-09-09T08:19:58;3.57;;;1.87;;
7661;SDS011;30314;48.184;11.510;2022-09-09T08:22:30;7.43;;;1.90;;
7661;SDS011;30314;48.184;11.510;2022-09-09T08:24:59;4.10;;;1.40;;
7661;SDS011;30314;48.184;11.510;2022-09-09T08:27:31;5.43;;;1.70;;
7661;SDS011;30314;48.184;11.510;2022-09-09T08:29:59;3.07;;;1.80;;
7661;SDS011;30314;48.184;11.510;2022-09-09T08:32:28;4.70;;;2.07;;
7661;SDS011;30314;48.184;11.510;2022-09-09T08:34:57;4.40;;;1.77;;
7661;SDS011;30314;48.184;11.510;2022-09-09T08:37:28;3.43;;;1.57;;
7661;SDS011;30314;48.184;11.510;2022-09-09T08:39:56;3.27;;;1.60;;
7661;SDS011;30314;48.184;11.510;2022-09-09T08:42:33;3.60;;;2.30;;
7661;SDS011;30314;48.184;11.510;2022-09-09T08:45:19;3.97;;;1.60;;
7661;SDS011;30314;48.184;11.510;2022-09-09T08:48:02;3.73;;;1.57;;
7661;SDS011;30314;48.184;11.510;2022-09-09T08:50:45;1.80;;;1.30;;
7661;SDS011;30314;48.184;11.510;2022-09-09T08:53:27;3.63;;;1.50;;
7661;SDS011;30314;48.184;11.510;2022-09-09T08:55:59;3.50;;;1.50;;
7661;SDS011;30314;48.184;11.510;2022-09-09T08:58:59;4.80;;;1.60;;
7661;SDS011;30314;48.184;11.510;2022-09-09T09:01:41;4.13;;;1.67;;
7661;SDS011;30314;48.184;11.510;2022-09-09T09:04:33;5.77;;;2.20;;
7661;SDS011;30314;48.184;11.510;2022-09-09T09:07:14;2.10;;;1.30;;
7661;SDS011;30314;48.184;11.510;2022-09-09T09:09:52;4.63;;;1.90;;
7661;SDS011;30314;48.184;11.510;2022-09-09T09:12:41;2.67;;;1.73;;
7661;SDS011;30314;48.184;11.510;2022-09-09T09:15:18;4.83;;;2.87;;
7661;SDS011;30314;48.184;11.510;2022-09-09T09:17:49;5.23;;;1.97;;
7661;SDS011;30314;48.184;11.510;2022-09-09T09:20:20;3.57;;;1.70;;
7661;SDS011;30314;48.184;11.510;2022-09-09T09:23:21;3.37;;;1.90;;
7661;SDS011;30314;48.184;11.510;2022-09-09T09:25:55;3.53;;;1.67;;
7661;SDS011;30314;48.184;11.510;2022-09-09T09:28:29;4.27;;;1.90;;
7661;SDS011;30314;48.184;11.510;2022-09-09T09:31:09;2.60;;;1.40;;
7661;SDS011;30314;48.184;11.510;2022-09-09T09:33:43;5.20;;;1.60;;
7661;SDS011;30314;48.184;11.510;2022-09-09T09:36:19;4.37;;;1.10;;
7661;SDS011;30314;48.184;11.510;2022-09-09T09:38:52;2.80;;;1.30;;
7661;SDS011;30314;48.184;11.510;2022-09-09T09:41:43;4.07;;;1.60;;
7661;SDS011;30314;48.184;11.510;2022-09-09T09:44:24;2.33;;;1.00;;
7661;SDS011;30314;48.184;11.510;2022-09-09T09:47:06;4.00;;;1.30;;
7661;SDS011;30314;48.184;11.510;2022-09-09T09:49:36;2.30;;;0.90;;
7661;SDS011;30314;48.184;11.510;2022-09-09T09:52:04;2.73;;;1.00;;
7661;SDS011;30314;48.184;11.510;2022-09-09T09:54:37;1.63;;;0.80;;
7661;SDS011;30314;48.184;11.510;2022-09-09T09:57:12;3.00;;;0.90;;
7661;SDS011;30314;48.184;11.510;2022-09-09T09:59:45;2.50;;;1.07;;
7661;SDS011;30314;48.184;11.510;2022-09-09T10:02:21;3.73;;;1.27;;
7661;SDS011;30314;48.184;11.510;2022-09-09T10:05:03;2.13;;;1.57;;
7661;SDS011;30314;48.184;11.510;2022-09-09T10:07:35;5.10;;;1.10;;
7661;SDS011;30314;48.184;11.510;2022-09-09T10:10:04;2.50;;;0.90;;
7661;SDS011;30314;48.184;11.510;2022-09-09T10:12:36;3.50;;;1.00;;
7661;SDS011;30314;48.184;11.510;2022-09-09T10:15:21;3.10;;;1.30;;
7661;SDS011;30314;48.184;11.510;2022-09-09T10:18:03;3.63;;;1.07;;
7661;SDS011;30314;48.184;11.510;2022-09-09T10:20:44;1.87;;;0.80;;
7661;SDS011;30314;48.184;11.510;2022-09-09T10:23:21;3.17;;;0.80;;
7661;SDS011;30314;48.184;11.510;2022-09-09T10:26:08;6.73;;;1.20;;
7661;SDS011;30314;48.184;11.510;2022-09-09T10:29:02;5.70;;;0.80;;
7661;SDS011;30314;48.184;11.510;2022-09-09T10:31:45;6.90;;;1.10;;
7661;SDS011;30314;48.184;11.510;2022-09-09T10:34:22;2.50;;;1.20;;
7661;SDS011;30314;48.184;11.510;2022-09-09T10:37:11;1.53;;;0.90;;
7661;SDS011;30314;48.184;11.510;2022-09-09T10:39:48;3.00;;;0.90;;
7661;SDS011;30314;48.184;11.510;2022-09-09T10:42:28;2.13;;;1.23;;
7661;SDS011;30314;48.184;11.510;2022-09-09T10:45:04;4.47;;;0.87;;
7661;SDS011;30314;48.184;11.510;2022-09-09T10:47:47;4.27;;;1.57;;
7661;SDS011;30314;48.184;11.510;2022-09-09T10:50:39;2.03;;;0.70;;
7661;SDS011;30314;48.184;11.510;2022-09-09T10:53:35;4.27;;;1.13;;
7661;SDS011;30314;48.184;11.510;2022-09-09T10:56:07;2.03;;;1.07;;
7661;SDS011;30314;48.184;11.510;2022-09-09T10:58:38;8.43;;;1.37;;
7661;SDS011;30314;48.184;11.510;2022-09-09T11:01:13;5.13;;;1.40;;
7661;SDS011;30314;48.184;11.510;2022-09-09T11:03:47;4.60;;;1.30;;
7661;SDS011;30314;48.184;11.510;2022-09-09T11:06:24;1.47;;;0.83;;
7661;SDS011;30314;48.184;11.510;2022-09-09T11:08:59;3.53;;;1.10;;
7661;SDS011;30314;48.184;11.510;2022-09-09T11:11:30;2.50;;;0.87;;
7661;SDS011;30314;48.184;11.510;2022-09-09T11:14:05;4.03;;;0.80;;
7661;SDS011;30314;48.184;11.510;2022-09-09T11:16:41;2.20;;;0.70;;
7661;SDS011;30314;48.184;11.510;2022-09-09T11:19:15;1.00;;;0.50;;
7661;SDS011;30314;48.184;11.510;2022-09-09T11:21:49;2.80;;;0.70;;
7661;SDS011;30314;48.184;11.510;2022-09-09T11:24:19;2.60;;;0.47;;
7661;SDS011;30314;48.184;11.510;2022-09-09T11:26:51;3.57;;;0.80;;
7661;SDS011;30314;48.184;11.510;2022-09-09T11:32:19;4.90;;;1.30;;
7661;SDS011;30314;48.184;11.510;2022-09-09T11:35:11;1.33;;;0.60;;
7661;SDS011;30314;48.184;11.510;2022-09-09T11:37:58;2.10;;;0.57;;
7661;SDS011;30314;48.184;11.510;2022-09-09T11:40:36;0.90;;;0.50;;
7661;SDS011;30314;48.184;11.510;2022-09-09T11:43:07;2.37;;;0.70;;
7661;SDS011;30314;48.184;11.510;2022-09-09T11:45:39;1.93;;;0.50;;
7661;SDS011;30314;48.184;11.510;2022-09-09T11:48:20;1.20;;;0.60;;
7661;SDS011;30314;48.184;11.510;2022-09-09T11:50:57;1.60;;;0.63;;
7661;SDS011;30314;48.184;11.510;2022-09-09T11:53:27;2.10;;;0.80;;
7661;SDS011;30314;48.184;11.510;2022-09-09T11:58:54;2.70;;;0.80;;
7661;SDS011;30314;48.184;11.510;2022-09-09T12:01:27;1.57;;;0.60;;
7661;SDS011;30314;48.184;11.510;2022-09-09T12:04:14;1.73;;;0.50;;
7661;SDS011;30314;48.184;11.510;2022-09-09T12:06:50;4.23;;;0.50;;
7661;SDS011;30314;48.184;11.510;2022-09-09T12:09:27;3.60;;;0.70;;
7661;SDS011;30314;48.184;11.510;2022-09-09T12:12:05;1.67;;;0.63;;
7661;SDS011;30314;48.184;11.510;2022-09-09T12:14:54;2.10;;;0.70;;
7661;SDS011;30314;48.184;11.510;2022-09-09T12:17:27;1.80;;;0.67;;
7661;SDS011;30314;48.184;11.510;2022-09-09T12:20:00;2.13;;;0.60;;
7661;SDS011;30314;48.184;11.510;2022-09-09T12:22:33;1.63;;;0.87;;
7661;SDS011;30314;48.184;11.510;2022-09-09T12:25:08;2.67;;;0.50;;
7661;SDS011;30314;48.184;11.510;2022-09-09T12:27:50;1.53;;;0.57;;
7661;SDS011;30314;48.184;11.510;2022-09-09T12:30:29;3.57;;;0.93;;
7661;SDS011;30314;48.184;11.510;2022-09-09T12:33:07;3.30;;;0.90;;
7661;SDS011;30314;48.184;11.510;2022-09-09T12:35:38;1.73;;;0.70;;
7661;SDS011;30314;48.184;11.510;2022-09-09T12:38:09;1.43;;;0.70;;
7661;SDS011;30314;48.184;11.510;2022-09-09T12:40:53;3.33;;;0.77;;
7661;SDS011;30314;48.184;11.510;2022-09-09T12:43:22;3.03;;;0.70;;
7661;SDS011;30314;48.184;11.510;2022-09-09T12:45:52;2.07;;;0.50;;
7661;SDS011;30314;48.184;11.510;2022-09-09T12:48:26;2.27;;;0.80;;
7661;SDS011;30314;48.184;11.510;2022-09-09T12:50:59;1.93;;;0.50;;
7661;SDS011;30314;48.184;11.510;2022-09-09T12:53:29;2.17;;;0.70;;
7661;SDS011;30314;48.184;11.510;2022-09-09T12:56:04;2.20;;;0.60;;
7661;SDS011;30314;48.184;11.510;2022-09-09T12:58:35;1.20;;;0.60;;
7661;SDS011;30314;48.184;11.510;2022-09-09T13:01:05;1.57;;;0.50;;
7661;SDS011;30314;48.184;11.510;2022-09-09T13:03:41;1.90;;;0.50;;
7661;SDS011;30314;48.184;11.510;2022-09-09T13:06:16;1.53;;;0.57;;
7661;SDS011;30314;48.184;11.510;2022-09-09T13:08:55;3.63;;;0.60;;
7661;SDS011;30314;48.184;11.510;2022-09-09T13:11:27;3.10;;;0.70;;
7661;SDS011;30314;48.184;11.510;2022-09-09T13:13:58;6.70;;;0.70;;
7661;SDS011;30314;48.184;11.510;2022-09-09T13:16:27;4.57;;;0.90;;
7661;SDS011;30314;48.184;11.510;2022-09-09T13:18:58;1.73;;;0.60;;
7661;SDS011;30314;48.184;11.510;2022-09-09T13:21:31;5.23;;;0.60;;
7661;SDS011;30314;48.184;11.510;2022-09-09T13:24:00;1.63;;;0.50;;
7661;SDS011;30314;48.184;11.510;2022-09-09T13:26:31;2.60;;;0.50;;
7661;SDS011;30314;48.184;11.510;2022-09-09T13:29:15;2.43;;;1.10;;
7661;SDS011;30314;48.184;11.510;2022-09-09T13:31:48;1.00;;;0.40;;
7661;SDS011;30314;48.184;11.510;2022-09-09T13:34:26;4.13;;;0.90;;
7661;SDS011;30314;48.184;11.510;2022-09-09T13:36:56;6.27;;;1.10;;
7661;SDS011;30314;48.184;11.510;2022-09-09T13:39:28;2.30;;;1.00;;
7661;SDS011;30314;48.184;11.510;2022-09-09T13:41:58;3.47;;;1.07;;
7661;SDS011;30314;48.184;11.510;2022-09-09T13:44:27;2.87;;;0.83;;
7661;SDS011;30314;48.184;11.510;2022-09-09T13:46:59;2.33;;;0.50;;
7661;SDS011;30314;48.184;11.510;2022-09-09T13:49:35;2.10;;;0.50;;
7661;SDS011;30314;48.184;11.510;2022-09-09T13:52:04;4.17;;;0.60;;
7661;SDS011;30314;48.184;11.510;2022-09-09T13:54:33;1.73;;;0.60;;
7661;SDS011;30314;48.184;11.510;2022-09-09T13:57:03;2.73;;;0.40;;
7661;SDS011;30314;48.184;11.510;2022-09-09T13:59:33;1.50;;;0.50;;
7661;SDS011;30314;48.184;11.510;2022-09-09T14:02:20;2.60;;;0.47;;
7661;SDS011;30314;48.184;11.510;2022-09-09T14:04:49;1.40;;;0.67;;
7661;SDS011;30314;48.184;11.510;2022-09-09T14:07:21;1.20;;;0.40;;
7661;SDS011;30314;48.184;11.510;2022-09-09T14:09:49;3.17;;;0.70;;
7661;SDS011;30314;48.184;11.510;2022-09-09T14:12:19;1.50;;;0.60;;
7661;SDS011;30314;48.184;11.510;2022-09-09T14:14:47;2.60;;;0.47;;
7661;SDS011;30314;48.184;11.510;2022-09-09T14:17:14;1.40;;;0.50;;
7661;SDS011;30314;48.184;11.510;2022-09-09T14:19:42;2.23;;;0.50;;
7661;SDS011;30314;48.184;11.510;2022-09-09T14:22:12;2.50;;;0.63;;
7661;SDS011;30314;48.184;11.510;2022-09-09T14:24:39;1.77;;;0.83;;
7661;SDS011;30314;48.184;11.510;2022-09-09T14:27:08;2.60;;;0.70;;
7661;SDS011;30314;48.184;11.510;2022-09-09T14:29:37;5.80;;;0.50;;
7661;SDS011;30314;48.184;11.510;2022-09-09T14:32:04;3.63;;;0.60;;
7661;SDS011;30314;48.184;11.510;2022-09-09T14:34:37;1.53;;;0.63;;
7661;SDS011;30314;48.184;11.510;2022-09-09T14:37:05;1.57;;;0.40;;
7661;SDS011;30314;48.184;11.510;2022-09-09T14:39:33;3.43;;;1.37;;
7661;SDS011;30314;48.184;11.510;2022-09-09T14:42:01;2.40;;;0.67;;
7661;SDS011;30314;48.184;11.510;2022-09-09T14:44:28;1.13;;;0.50;;
7661;SDS011;30314;48.184;11.510;2022-09-09T14:46:58;1.83;;;0.40;;
7661;SDS011;30314;48.184;11.510;2022-09-09T14:49:25;2.60;;;0.90;;
7661;SDS011;30314;48.184;11.510;2022-09-09T14:51:53;1.53;;;0.60;;
7661;SDS011;30314;48.184;11.510;2022-09-09T14:54:20;4.83;;;1.10;;
7661;SDS011;30314;48.184;11.510;2022-09-09T14:56:49;3.07;;;0.93;;
7661;SDS011;30314;48.184;11.510;2022-09-09T14:59:16;7.53;;;0.80;;
7661;SDS011;30314;48.184;11.510;2022-09-09T15:01:44;1.50;;;0.60;;
7661;SDS011;30314;48.184;11.510;2022-09-09T15:04:13;5.03;;;0.57;;
7661;SDS011;30314;48.184;11.510;2022-09-09T15:06:44;5.13;;;0.87;;
7661;SDS011;30314;48.184;11.510;2022-09-09T15:09:14;4.20;;;0.70;;
7661;SDS011;30314;48.184;11.510;2022-09-09T15:11:42;1.97;;;0.60;;
7661;SDS011;30314;48.184;11.510;2022-09-09T15:14:10;1.77;;;0.50;;
7661;SDS011;30314;48.184;11.510;2022-09-09T15:16:38;2.10;;;0.87;;
7661;SDS011;30314;48.184;11.510;2022-09-09T15:19:07;1.63;;;0.70;;
7661;SDS011;30314;48.184;11.510;2022-09-09T15:21:36;2.80;;;0.80;;
7661;SDS011;30314;48.184;11.510;2022-09-09T15:24:05;1.97;;;0.70;;
7661;SDS011;30314;48.184;11.510;2022-09-09T15:26:34;2.83;;;0.67;;
7661;SDS011;30314;48.184;11.510;2022-09-09T15:29:04;1.83;;;0.47;;
7661;SDS011;30314;48.184;11.510;2022-09-09T15:31:33;1.93;;;0.50;;
7661;SDS011;30314;48.184;11.510;2022-09-09T15:34:02;2.00;;;0.40;;
7661;SDS011;30314;48.184;11.510;2022-09-09T15:36:32;2.33;;;0.43;;
7661;SDS011;30314;48.184;11.510;2022-09-09T15:39:03;4.03;;;0.67;;
7661;SDS011;30314;48.184;11.510;2022-09-09T15:41:33;1.63;;;0.40;;
7661;SDS011;30314;48.184;11.510;2022-09-09T15:44:01;3.77;;;1.10;;
7661;SDS011;30314;48.184;11.510;2022-09-09T15:46:30;1.33;;;0.50;;
7661;SDS011;30314;48.184;11.510;2022-09-09T15:49:02;1.83;;;1.23;;
7661;SDS011;30314;48.184;11.510;2022-09-09T15:51:31;5.37;;;0.80;;
7661;SDS011;30314;48.184;11.510;2022-09-09T15:54:11;3.90;;;0.50;;
7661;SDS011;30314;48.184;11.510;2022-09-09T15:56:40;6.30;;;0.93;;
7661;SDS011;30314;48.184;11.510;2022-09-09T15:59:08;1.70;;;0.60;;
7661;SDS011;30314;48.184;11.510;2022-09-09T16:01:37;3.43;;;1.00;;
7661;SDS011;30314;48.184;11.510;2022-09-09T16:04:07;1.57;;;0.50;;
7661;SDS011;30314;48.184;11.510;2022-09-09T16:06:35;2.20;;;0.77;;
7661;SDS011;30314;48.184;11.510;2022-09-09T16:09:03;1.27;;;0.40;;
7661;SDS011;30314;48.184;11.510;2022-09-09T16:11:35;3.17;;;0.57;;
7661;SDS011;30314;48.184;11.510;2022-09-09T16:14:05;5.33;;;0.83;;
7661;SDS011;30314;48.184;11.510;2022-09-09T16:16:34;3.73;;;0.50;;
7661;SDS011;30314;48.184;11.510;2022-09-09T16:19:03;1.60;;;0.70;;
7661;SDS011;30314;48.184;11.510;2022-09-09T16:21:32;5.07;;;0.83;;
7661;SDS011;30314;48.184;11.510;2022-09-09T16:24:04;4.73;;;0.83;;
7661;SDS011;30314;48.184;11.510;2022-09-09T16:26:35;1.87;;;0.57;;
7661;SDS011;30314;48.184;11.510;2022-09-09T16:29:07;2.30;;;0.77;;
7661;SDS011;30314;48.184;11.510;2022-09-09T16:31:35;1.20;;;0.57;;
7661;SDS011;30314;48.184;11.510;2022-09-09T16:34:03;1.73;;;0.40;;
7661;SDS011;30314;48.184;11.510;2022-09-09T16:36:32;1.50;;;0.77;;
7661;SDS011;30314;48.184;11.510;2022-09-09T16:39:02;2.80;;;0.93;;
7661;SDS011;30314;48.184;11.510;2022-09-09T16:41:31;4.70;;;0.93;;
7661;SDS011;30314;48.184;11.510;2022-09-09T16:44:04;1.93;;;0.70;;
7661;SDS011;30314;48.184;11.510;2022-09-09T16:46:33;1.40;;;0.63;;
7661;SDS011;30314;48.184;11.510;2022-09-09T16:49:03;8.30;;;1.27;;
7661;SDS011;30314;48.184;11.510;2022-09-09T16:51:33;4.37;;;0.97;;
7661;SDS011;30314;48.184;11.510;2022-09-09T16:54:03;2.70;;;1.47;;
7661;SDS011;30314;48.184;11.510;2022-09-09T16:56:34;1.33;;;0.57;;
7661;SDS011;30314;48.184;11.510;2022-09-09T16:59:05;5.93;;;0.73;;
7661;SDS011;30314;48.184;11.510;2022-09-09T17:01:35;3.43;;;0.80;;
7661;SDS011;30314;48.184;11.510;2022-09-09T17:04:05;3.53;;;0.80;;
7661;SDS011;30314;48.184;11.510;2022-09-09T17:06:35;1.97;;;0.80;;
7661;SDS011;30314;48.184;11.510;2022-09-09T17:09:05;4.00;;;0.60;;
7661;SDS011;30314;48.184;11.510;2022-09-09T17:11:34;2.43;;;0.80;;
7661;SDS011;30314;48.184;11.510;2022-09-09T17:14:03;2.07;;;1.00;;
7661;SDS011;30314;48.184;11.510;2022-09-09T17:16:32;2.13;;;1.00;;
7661;SDS011;30314;48.184;11.510;2022-09-09T17:19:02;8.57;;;1.73;;
7661;SDS011;30314;48.184;11.510;2022-09-09T17:21:31;1.87;;;0.80;;
7661;SDS011;30314;48.184;11.510;2022-09-09T17:24:00;1.70;;;0.60;;
7661;SDS011;30314;48.184;11.510;2022-09-09T17:26:28;1.60;;;0.90;;
7661;SDS011;30314;48.184;11.510;2022-09-09T17:28:57;3.40;;;1.00;;
7661;SDS011;30314;48.184;11.510;2022-09-09T17:31:27;1.30;;;0.90;;
7661;SDS011;30314;48.184;11.510;2022-09-09T17:33:57;1.57;;;1.00;;
7661;SDS011;30314;48.184;11.510;2022-09-09T17:36:26;2.00;;;0.87;;
7661;SDS011;30314;48.184;11.510;2022-09-09T17:38:56;2.87;;;1.07;;
7661;SDS011;30314;48.184;11.510;2022-09-09T17:41:26;4.33;;;1.30;;
7661;SDS011;30314;48.184;11.510;2022-09-09T17:43:55;2.33;;;0.80;;
7661;SDS011;30314;48.184;11.510;2022-09-09T17:46:24;2.23;;;0.80;;